Terminal Aerodrome Forecast
Issued by NWS

Home | Current Version | Previous Version | Text Only | Print | Product List | Glossary On
Versions: 1 2 3 4 5 6 7 8 9 10 11 12 13 14 15 16 17 18 19 20 21 22
000
FTUS41 KALY 281900 AAC
TAFPSF
TAF AMD
KPSF 281927Z 2819/2918 28011G22KT P6SM VCSH BKN025
     FM282300 29008KT P6SM SCT045 OVC150
     FM290900 29009KT P6SM SCT150
     FM291400 30010KT P6SM SCT040=

USA.gov is the U.S. government's official web portal to all federal, state and local government web resources and services.